Time;durP1;ratioP1;P1;durP2;ratioP2;P2;SDS_P1;SDS_P2;PMS_P1;PMS_P2;Temp;Humidity;BMP_temperature;BMP_pressure;BME280_temperature;BME280_humidity;BME280_pressure;Samples;Min_cycle;Max_cycle;Signal;HPM_P1;HPM_P2
2023/08/02 00:01:17;;;;;;;10.00;7.75;;;;;;;19.61;82.06;96847.84;10283605;28;20057;-50
2023/08/02 00:06:15;;;;;;;10.73;8.57;;;;;;;19.58;82.23;96842.72;10280417;28;20030;-51
2023/08/02 00:11:16;;;;;;;8.98;7.93;;;;;;;19.64;82.19;96838.00;10280118;28;20529;-48
2023/08/02 00:16:15;;;;;;;11.65;7.20;;;;;;;19.49;82.64;96828.25;10278910;28;20066;-48
2023/08/02 00:21:14;;;;;;;11.25;7.85;;;;;;;19.39;82.64;96851.56;10279505;28;20447;-51
2023/08/02 00:26:13;;;;;;;11.40;7.82;;;;;;;19.39;82.48;96848.03;10284225;28;20120;-48
2023/08/02 00:31:12;;;;;;;10.80;7.60;;;;;;;19.19;83.56;96849.91;10287907;28;20045;-48
2023/08/02 00:36:11;;;;;;;12.32;10.60;;;;;;;18.96;84.31;96855.47;10287627;28;20026;-49
2023/08/02 00:41:10;;;;;;;12.80;9.15;;;;;;;18.92;84.09;96849.50;10286220;28;20036;-50
2023/08/02 00:46:10;;;;;;;12.43;8.75;;;;;;;18.83;84.56;96847.34;10287187;28;20585;-50
2023/08/02 00:51:15;;;;;;;11.38;8.52;;;;;;;18.58;85.94;96856.34;10285331;28;20057;-51
2023/08/02 00:56:15;;;;;;;10.35;8.82;;;;;;;18.58;85.97;96856.34;10287239;28;20065;-50
2023/08/02 01:01:14;;;;;;;11.40;8.25;;;;;;;18.29;86.79;96809.59;10284688;28;20488;-50
2023/08/02 01:06:37;;;;;;;16.17;8.75;;;;;;;18.51;86.65;96852.31;10288572;28;20501;-49
2023/08/02 01:11:46;;;;;;;11.40;9.05;;;;;;;18.55;87.28;96855.63;10286780;28;20495;-50
2023/08/02 01:16:46;;;;;;;9.32;7.68;;;;;;;18.36;88.30;96850.41;10284423;28;20060;-50
2023/08/02 01:21:45;;;;;;;12.63;9.20;;;;;;;18.42;87.95;96844.03;10286546;28;20065;-48
2023/08/02 01:26:47;;;;;;;11.90;10.35;;;;;;;18.47;88.13;96845.50;10290153;28;20033;-50
2023/08/02 01:31:48;;;;;;;12.73;9.27;;;;;;;18.40;88.31;96841.44;10285992;28;20088;-49
2023/08/02 01:36:48;;;;;;;10.00;9.00;;;;;;;18.40;88.74;96838.81;10285722;28;20124;-50
2023/08/02 01:41:47;;;;;;;11.02;8.57;;;;;;;18.32;88.82;96851.47;10283166;28;20126;-50
2023/08/02 01:46:45;;;;;;;11.85;8.48;;;;;;;18.36;88.61;96839.88;10286149;28;20034;-49
2023/08/02 01:51:44;;;;;;;15.27;8.63;;;;;;;17.82;88.44;96745.25;10284378;28;20124;-49
2023/08/02 01:56:43;;;;;;;13.15;8.90;;;;;;;18.48;87.88;96839.34;10283369;28;20121;-50
2023/08/02 02:01:42;;;;;;;10.63;8.63;;;;;;;18.38;87.30;96807.38;10281734;28;20141;-50
2023/08/02 02:06:41;;;;;;;9.48;7.72;;;;;;;18.63;87.01;96847.41;10287897;28;20045;-51
2023/08/02 02:11:40;;;;;;;13.07;8.30;;;;;;;18.66;86.96;96827.06;10287413;28;20044;-51
2023/08/02 02:16:39;;;;;;;9.35;8.30;;;;;;;18.44;87.79;96827.25;10285020;28;20042;-48
2023/08/02 02:21:38;;;;;;;9.07;8.18;;;;;;;18.58;87.19;96829.22;10283196;28;20113;-50
2023/08/02 02:26:37;;;;;;;11.40;9.25;;;;;;;18.66;87.04;96827.06;10282394;28;20116;-51
2023/08/02 02:31:36;;;;;;;10.40;9.30;;;;;;;18.70;86.55;96828.66;10286374;28;20463;-48
2023/08/02 02:36:35;;;;;;;13.85;9.30;;;;;;;18.75;86.09;96845.06;10281856;28;20176;-51
2023/08/02 02:41:34;;;;;;;11.32;9.27;;;;;;;18.76;85.83;96848.53;10281123;28;20044;-51
2023/08/02 02:46:33;;;;;;;13.40;9.65;;;;;;;18.65;85.48;96850.81;10282543;28;20543;-51
2023/08/02 02:51:32;;;;;;;14.07;9.80;;;;;;;18.53;85.57;96847.00;10281216;28;20522;-51
2023/08/02 02:56:31;;;;;;;14.10;10.60;;;;;;;18.54;85.61;96849.53;10280674;28;20042;-48
2023/08/02 03:01:30;;;;;;;13.82;10.50;;;;;;;18.48;85.75;96859.47;10282338;28;20038;-51
2023/08/02 03:06:28;;;;;;;17.13;12.82;;;;;;;18.48;84.42;96855.09;10280835;28;20503;-50
2023/08/02 03:11:27;;;;;;;12.05;10.35;;;;;;;18.79;83.72;96870.28;10282159;28;20046;-51
2023/08/02 03:16:26;;;;;;;14.40;10.73;;;;;;;18.73;83.06;96860.03;10281050;28;20105;-50
2023/08/02 03:21:25;;;;;;;15.18;10.30;;;;;;;18.84;82.09;96867.44;10279759;28;20049;-49
2023/08/02 03:26:24;;;;;;;14.25;10.25;;;;;;;18.81;81.86;96859.69;10281519;28;20160;-49
2023/08/02 03:31:23;;;;;;;12.40;10.98;;;;;;;18.82;81.06;96859.59;10279714;28;20058;-52
2023/08/02 03:36:22;;;;;;;15.63;11.68;;;;;;;18.68;80.27;96829.63;10281220;28;20034;-48
2023/08/02 03:41:21;;;;;;;14.13;11.90;;;;;;;19.09;78.52;96859.19;10280529;28;20414;-51
2023/08/02 03:46:20;;;;;;;16.20;12.13;;;;;;;19.32;77.30;96871.22;10251261;28;20061;-51
2023/08/02 03:51:19;;;;;;;18.50;13.40;;;;;;;19.43;76.00;96845.19;10280767;28;20120;-51
2023/08/02 03:56:18;;;;;;;16.20;12.98;;;;;;;19.90;73.94;96861.25;10277100;28;20495;-50
2023/08/02 04:01:17;;;;;;;15.82;12.80;;;;;;;20.27;72.37;96868.88;10277900;28;20483;-51
2023/08/02 04:06:16;;;;;;;16.30;13.07;;;;;;;20.54;72.08;96864.84;10278910;28;20030;-50
2023/08/02 04:11:15;;;;;;;16.70;13.90;;;;;;;20.79;70.97;96870.47;10278838;28;20040;-51
2023/08/02 04:16:14;;;;;;;16.83;13.80;;;;;;;20.93;69.75;96882.88;10278760;28;20025;-50
2023/08/02 04:21:18;;;;;;;17.05;13.95;;;;;;;21.10;68.37;96889.81;10277280;28;20026;-50
2023/08/02 04:26:17;;;;;;;15.57;13.98;;;;;;;21.28;67.40;96903.78;10280017;28;20140;-49
2023/08/02 04:31:16;;;;;;;15.13;13.23;;;;;;;21.46;66.10;96902.72;10278267;28;20129;-48
2023/08/02 04:36:15;;;;;;;14.23;12.73;;;;;;;21.85;63.68;96897.78;10277845;28;20026;-50
2023/08/02 04:41:15;;;;;;;13.40;11.50;;;;;;;22.08;61.26;96870.84;10278857;28;20030;-49
2023/08/02 04:46:15;;;;;;;14.93;11.77;;;;;;;22.73;59.73;96894.13;10277966;28;20113;-51
2023/08/02 04:51:14;;;;;;;12.88;11.55;;;;;;;23.23;58.77;96894.44;10279719;28;20140;-51
2023/08/02 04:56:13;;;;;;;12.95;11.13;;;;;;;23.57;56.34;96901.03;10277899;28;20209;-51
2023/08/02 05:01:12;;;;;;;12.88;11.57;;;;;;;23.90;55.84;96902.34;10283461;28;20113;-49
2023/08/02 05:06:11;;;;;;;15.32;11.93;;;;;;;24.21;55.14;96909.06;10279613;28;20034;-51
2023/08/02 05:11:10;;;;;;;14.18;12.60;;;;;;;24.53;55.09;96919.22;10280642;28;20025;-48
2023/08/02 05:16:13;;;;;;;14.68;13.07;;;;;;;24.61;55.01;96926.63;10285662;28;20312;-48
2023/08/02 05:21:13;;;;;;;14.35;12.75;;;;;;;24.60;55.61;96919.63;10284829;28;20085;-51
2023/08/02 05:26:13;;;;;;;14.30;12.88;;;;;;;24.56;55.79;96926.97;10286002;28;20112;-49
2023/08/02 05:31:13;;;;;;;17.27;13.27;;;;;;;24.70;56.31;96937.44;10282501;28;20149;-51
2023/08/02 05:36:12;;;;;;;15.20;12.02;;;;;;;24.65;53.68;96944.03;10282888;28;20130;-51
2023/08/02 05:41:11;;;;;;;19.00;13.57;;;;;;;24.95;55.60;96941.03;10285383;28;20141;-51
2023/08/02 05:46:11;;;;;;;19.27;13.55;;;;;;;25.22;56.05;96946.16;10283433;28;20057;-49
2023/08/02 05:51:10;;;;;;;17.55;13.38;;;;;;;25.43;55.70;96946.34;10284477;28;20114;-51
2023/08/02 05:56:09;;;;;;;15.27;11.85;;;;;;;25.45;52.77;96946.25;10284537;28;20460;-50
2023/08/02 06:01:08;;;;;;;20.17;14.10;;;;;;;25.54;54.69;96942.94;10281846;28;20491;-50
2023/08/02 06:06:07;;;;;;;16.67;13.25;;;;;;;25.71;53.70;96933.69;10284563;28;20149;-49
2023/08/02 06:11:06;;;;;;;14.02;11.93;;;;;;;25.94;53.62;96955.88;10282314;28;20065;-51
2023/08/02 06:16:05;;;;;;;15.30;12.38;;;;;;;25.99;53.07;96964.34;10283745;28;20036;-50
2023/08/02 06:21:05;;;;;;;15.00;12.23;;;;;;;26.14;51.96;96957.88;10282757;28;20029;-50
2023/08/02 06:26:04;;;;;;;16.67;13.85;;;;;;;26.03;53.21;96955.19;10276769;28;20528;-49
2023/08/02 06:31:03;;;;;;;14.13;12.63;;;;;;;26.00;52.09;96950.09;10282527;28;20520;-51
2023/08/02 06:36:02;;;;;;;15.73;13.85;;;;;;;26.11;53.56;96962.56;10280188;28;20116;-52
2023/08/02 06:41:02;;;;;;;15.20;13.13;;;;;;;26.23;53.01;96952.81;10278260;28;20125;-50
2023/08/02 06:46:01;;;;;;;15.27;13.10;;;;;;;26.42;50.77;96939.81;10277334;28;20128;-52
2023/08/02 06:51:00;;;;;;;14.82;12.57;;;;;;;26.74;51.04;96939.91;10278695;28;20029;-51
2023/08/02 06:55:59;;;;;;;15.57;12.10;;;;;;;27.09;49.98;96948.72;10280706;28;20030;-51
2023/08/02 07:00:58;;;;;;;18.58;13.40;;;;;;;27.03;51.32;96943.91;10279010;28;20030;-52
2023/08/02 07:05:57;;;;;;;15.07;13.48;;;;;;;26.91;51.90;96943.94;10280818;28;20304;-50
2023/08/02 07:10:56;;;;;;;15.35;13.10;;;;;;;27.28;51.00;96940.91;10279558;28;20116;-51
2023/08/02 07:15:55;;;;;;;15.07;12.77;;;;;;;27.59;49.69;96944.63;10280823;28;20567;-52
2023/08/02 07:20:54;;;;;;;16.17;12.98;;;;;;;27.86;48.56;96945.09;10281411;28;20432;-52
2023/08/02 07:25:53;;;;;;;13.00;11.65;;;;;;;28.03;47.95;96937.38;10279360;28;20069;-51
2023/08/02 07:30:52;;;;;;;13.38;12.07;;;;;;;28.19;46.99;96944.91;10280165;28;20136;-51
2023/08/02 07:35:51;;;;;;;12.75;11.43;;;;;;;28.27;46.10;96943.41;10278217;28;20056;-51
2023/08/02 07:40:50;;;;;;;13.52;11.00;;;;;;;28.65;44.19;96951.63;10279669;28;20219;-51
2023/08/02 07:45:49;;;;;;;12.13;9.95;;;;;;;28.87;43.04;96950.59;10277944;28;20114;-52
2023/08/02 07:50:48;;;;;;;34.67;31.48;;;;;;;29.03;40.54;96950.09;10279668;28;20026;-53
2023/08/02 07:55:48;;;;;;;10.15;9.10;;;;;;;29.34;39.61;96947.38;10280616;28;20040;-50
2023/08/02 08:00:47;;;;;;;9.82;8.80;;;;;;;29.68;39.91;96963.03;10278533;28;20527;-52
2023/08/02 08:05:47;;;;;;;10.45;8.95;;;;;;;29.92;39.72;96952.75;10277400;28;20598;-49
2023/08/02 08:10:51;;;;;;;10.40;8.80;;;;;;;29.91;38.31;96945.75;10279410;28;20567;-52
2023/08/02 08:15:50;;;;;;;10.13;8.98;;;;;;;30.22;38.17;96956.25;10277979;28;20117;-51
2023/08/02 08:20:49;;;;;;;10.32;8.93;;;;;;;30.40;37.25;96960.84;10280011;28;20038;-51
2023/08/02 08:25:48;;;;;;;10.00;9.00;;;;;;;30.57;37.99;96962.81;10278250;28;20032;-53
2023/08/02 08:30:47;;;;;;;10.70;8.73;;;;;;;30.78;36.81;96959.06;10277764;28;20120;-50
2023/08/02 08:35:45;;;;;;;9.57;8.07;;;;;;;30.49;37.15;96976.06;10278797;28;20038;-53
2023/08/02 08:40:52;;;;;;;10.05;7.32;;;;;;;30.28;37.00;96984.25;10280942;28;20113;-52
2023/08/02 08:45:52;;;;;;;10.88;8.15;;;;;;;30.45;37.60;96961.31;10280799;28;20132;-52
2023/08/02 08:50:55;;;;;;;8.32;7.13;;;;;;;30.83;35.03;96967.50;10288191;28;20114;-53
2023/08/02 08:55:54;;;;;;;10.50;7.47;;;;;;;30.70;34.57;96966.00;10287269;28;20452;-51
2023/08/02 09:00:54;;;;;;;29.10;8.88;;;;;;;30.76;34.62;96976.13;10288946;28;20116;-52
2023/08/02 09:05:56;;;;;;;9.68;7.50;;;;;;;31.15;34.43;96975.97;10288011;28;20137;-52
2023/08/02 09:10:55;;;;;;;7.50;6.60;;;;;;;30.62;33.08;96930.25;10288101;28;20065;-51
2023/08/02 09:16:03;;;;;;;9.32;7.10;;;;;;;30.95;32.57;96969.88;10286735;28;20026;-52
2023/08/02 09:21:02;;;;;;;;;;;;;;;30.78;33.66;96969.78;10288150;28;20473;-52
2023/08/02 09:26:16;;;;;;;8.32;6.97;;;;;;;30.74;33.79;96927.22;10287118;28;20000;-52
2023/08/02 09:31:18;;;;;;;8.43;7.50;;;;;;;30.49;33.88;96923.38;10285734;28;20906;-52
2023/08/02 09:36:30;;;;;;;8.65;6.55;;;;;;;30.50;33.49;96961.72;10287166;28;20397;-52
2023/08/02 09:41:31;;;;;;;9.63;7.03;;;;;;;30.72;32.97;96965.84;10288840;28;20455;-52
2023/08/02 09:46:34;;;;;;;9.57;7.07;;;;;;;30.83;33.74;96967.50;10287585;28;20141;-52
2023/08/02 09:51:40;;;;;;;10.52;7.35;;;;;;;30.63;33.94;96970.28;10282166;28;20113;-52
2023/08/02 09:56:41;;;;;;;10.32;6.13;;;;;;;30.47;32.29;96975.41;10282399;28;20168;-50
2023/08/02 10:01:40;;;;;;;8.35;7.30;;;;;;;30.56;33.49;96931.66;10282910;28;20080;-49
2023/08/02 10:07:03;;;;;;;9.10;8.18;;;;;;;30.63;37.74;96970.28;10279922;28;20472;-48
2023/08/02 10:12:11;;;;;;;10.23;8.38;;;;;;;30.55;38.80;96970.13;10282016;28;20479;-49
2023/08/02 10:17:10;;;;;;;9.10;7.95;;;;;;;30.69;39.32;96974.19;10281145;28;20444;-51
2023/08/02 10:22:11;;;;;;;10.48;7.93;;;;;;;30.54;39.65;96969.31;10283829;28;20121;-52
2023/08/02 10:27:10;;;;;;;10.05;8.23;;;;;;;30.32;39.47;96949.03;10282392;28;20153;-49
2023/08/02 10:32:12;;;;;;;8.07;7.25;;;;;;;30.38;39.00;96973.56;10281125;28;20128;-51
2023/08/02 10:37:11;;;;;;;9.13;6.97;;;;;;;30.23;39.63;96981.16;10282814;28;20058;-53
2023/08/02 10:42:15;;;;;;;8.80;7.57;;;;;;;30.24;38.80;96970.34;10281460;28;20112;-52
2023/08/02 10:47:24;;;;;;;9.02;7.95;;;;;;;30.62;37.28;96965.06;10282563;28;20571;-52
2023/08/02 10:52:25;;;;;;;9.75;7.72;;;;;;;30.90;38.51;96966.75;10282128;28;20116;-52
2023/08/02 10:57:24;;;;;;;8.27;7.47;;;;;;;30.93;36.89;96957.56;10281077;28;20466;-51
2023/08/02 11:02:25;;;;;;;8.70;7.80;;;;;;;30.94;36.65;96961.97;10281580;28;20601;-53
2023/08/02 11:07:24;;;;;;;8.57;7.68;;;;;;;31.09;35.60;96965.00;10271886;28;20117;-52
2023/08/02 11:12:23;;;;;;;8.85;7.97;;;;;;;31.12;35.17;96936.09;10281586;28;20125;-51
2023/08/02 11:17:23;;;;;;;10.40;7.75;;;;;;;31.48;34.94;96959.41;10279130;28;20045;-51
2023/08/02 11:22:22;;;;;;;9.27;8.07;;;;;;;31.72;36.26;96958.84;10280708;28;20138;-49
2023/08/02 11:27:23;;;;;;;10.93;7.45;;;;;;;32.00;34.50;96955.03;10280437;28;20038;-51
2023/08/02 11:32:22;;;;;;;8.85;7.97;;;;;;;31.93;34.88;96951.28;10279265;28;20069;-50
2023/08/02 11:37:22;;;;;;;11.57;8.05;;;;;;;31.71;35.00;96951.75;10279850;28;20045;-51
2023/08/02 11:42:21;;;;;;;8.23;7.18;;;;;;;31.40;33.40;96946.75;10277194;28;20129;-50
2023/08/02 11:47:20;;;;;;;8.63;7.68;;;;;;;31.37;35.59;96941.69;10283497;28;20137;-53
2023/08/02 11:52:27;;;;;;;7.97;7.15;;;;;;;30.96;34.71;96946.63;10278021;28;20125;-52
2023/08/02 11:57:27;;;;;;;56.80;11.50;;;;;;;31.36;34.53;96948.06;10280185;28;20056;-53
2023/08/02 12:02:30;;;;;;;8.63;7.70;;;;;;;31.63;35.32;96947.19;10279369;28;20136;-52
2023/08/02 12:07:32;;;;;;;10.93;7.32;;;;;;;31.69;33.78;96932.31;10278257;28;20074;-52
2023/08/02 12:12:33;;;;;;;12.18;7.38;;;;;;;32.00;34.91;96948.84;10277991;28;20558;-52
2023/08/02 12:17:32;;;;;;;8.65;7.13;;;;;;;32.09;34.49;96933.69;10277648;28;20061;-53
2023/08/02 12:22:47;;;;;;;8.50;7.07;;;;;;;31.93;33.40;96940.56;10275561;28;20030;-51
2023/08/02 12:28:05;;;;;;;8.07;6.65;;;;;;;32.10;33.83;96944.25;10279792;28;20133;-52
2023/08/02 12:33:04;;;;;;;8.15;6.47;;;;;;;32.28;33.27;96929.94;10231847;28;1269827;-52
2023/08/02 12:38:03;;;;;;;7.85;6.80;;;;;;;32.31;31.96;96937.69;10280282;28;20125;-52
2023/08/02 12:43:02;;;;;;;7.30;6.32;;;;;;;32.22;32.77;96943.00;10280636;28;20120;-48
2023/08/02 12:48:01;;;;;;;8.93;5.75;;;;;;;31.64;33.66;96956.06;10274835;28;20038;-53
2023/08/02 12:53:00;;;;;;;6.93;6.05;;;;;;;31.53;33.21;96944.56;10277454;28;20029;-52
2023/08/02 12:58:01;;;;;;;8.30;6.53;;;;;;;31.79;32.28;96933.91;10276704;28;20105;-51
2023/08/02 13:03:00;;;;;;;8.93;5.95;;;;;;;32.30;31.90;96926.09;10278647;28;20751;-53
2023/08/02 13:07:59;;;;;;;6.85;5.93;;;;;;;32.67;32.47;96916.06;10276994;28;20534;-52
2023/08/02 13:12:58;;;;;;;8.57;6.40;;;;;;;32.55;32.33;96923.53;10277463;28;20261;-52
2023/08/02 13:17:57;;;;;;;7.55;5.75;;;;;;;32.50;32.40;96925.88;10276986;28;20109;-52
2023/08/02 13:22:56;;;;;;;7.95;5.53;;;;;;;32.63;32.86;96926.31;10273421;28;20471;-52
2023/08/02 13:27:56;;;;;;;6.88;6.18;;;;;;;32.45;32.58;96933.56;10277562;28;20791;-52
2023/08/02 13:32:55;;;;;;;7.65;5.88;;;;;;;32.40;33.15;96932.19;10279622;28;20570;-52
2023/08/02 13:37:54;;;;;;;7.00;6.30;;;;;;;32.53;33.34;96925.53;10282359;28;20488;-51
2023/08/02 13:42:52;;;;;;;9.68;6.68;;;;;;;32.52;35.03;96934.63;10285922;28;20136;-52
2023/08/02 13:47:51;;;;;;;10.30;8.02;;;;;;;32.35;34.83;96907.66;10282706;28;20037;-52
2023/08/02 13:52:50;;;;;;;10.02;8.05;;;;;;;31.95;36.07;96948.47;10285063;28;20129;-51
2023/08/02 13:57:50;;;;;;;11.05;7.80;;;;;;;31.67;36.78;96945.03;10283189;28;20040;-52
2023/08/02 14:02:49;;;;;;;10.68;7.50;;;;;;;31.63;36.70;96939.13;10284649;28;20073;-50
2023/08/02 14:07:47;;;;;;;9.02;6.93;;;;;;;31.56;37.37;96949.63;10283824;28;20049;-54
2023/08/02 14:12:46;;;;;;;9.73;7.45;;;;;;;31.57;36.52;96955.84;10282407;28;20041;-52
2023/08/02 14:17:47;;;;;;;9.75;7.32;;;;;;;31.44;37.57;96958.88;10283978;28;20062;-50
2023/08/02 14:22:46;;;;;;;8.45;7.22;;;;;;;31.24;37.46;96943.88;10283142;28;20478;-51
2023/08/02 14:27:45;;;;;;;9.02;7.95;;;;;;;31.43;37.21;96933.06;10284712;28;21016;-52
2023/08/02 14:32:43;;;;;;;8.65;7.75;;;;;;;31.66;37.30;96946.03;10284820;28;21928;-52
2023/08/02 14:37:42;;;;;;;8.77;7.80;;;;;;;31.23;37.74;96936.84;10286799;28;20511;-52
2023/08/02 14:42:43;;;;;;;9.25;7.47;;;;;;;31.00;38.27;96961.38;10284602;28;20122;-51
2023/08/02 14:47:43;;;;;;;18.85;8.90;;;;;;;30.87;38.58;96955.50;10286451;28;20533;-52
2023/08/02 14:52:41;;;;;;;13.13;7.50;;;;;;;30.88;38.88;96959.88;10283657;28;20061;-51
2023/08/02 14:57:41;;;;;;;8.60;7.38;;;;;;;30.81;39.45;96921.28;10285172;28;20032;-52
2023/08/02 15:02:40;;;;;;;8.88;7.65;;;;;;;31.20;38.77;96958.63;10286041;28;20070;-50
2023/08/02 15:07:39;;;;;;;18.13;16.20;;;;;;;31.25;39.10;96945.59;10283946;28;20113;-50
2023/08/02 15:12:38;;;;;;;10.10;7.82;;;;;;;31.22;38.67;96959.28;10285049;28;20022;-52
2023/08/02 15:17:38;;;;;;;9.85;7.78;;;;;;;31.06;39.02;96962.63;10283299;28;20117;-51
2023/08/02 15:22:37;;;;;;;9.85;7.22;;;;;;;30.89;39.62;96956.19;10281535;28;20136;-52
2023/08/02 15:27:36;;;;;;;13.07;7.60;;;;;;;30.60;40.43;96957.16;10279358;28;20029;-51
2023/08/02 15:32:35;;;;;;;10.02;8.38;;;;;;;30.61;40.66;96972.25;10279732;28;20046;-53
2023/08/02 15:37:34;;;;;;;11.48;7.80;;;;;;;30.52;40.50;96949.03;10274273;28;20061;-50
2023/08/02 15:42:33;;;;;;;11.32;8.15;;;;;;;30.53;40.62;96964.09;10279713;28;20034;-52
2023/08/02 15:47:32;;;;;;;8.57;7.55;;;;;;;30.65;40.60;96962.06;10278545;28;20031;-52
2023/08/02 15:52:31;;;;;;;10.38;7.70;;;;;;;30.39;41.14;96962.69;10278191;28;20753;-52
2023/08/02 15:57:30;;;;;;;9.98;8.20;;;;;;;30.30;41.55;96971.56;10278256;28;20546;-50
2023/08/02 16:02:29;;;;;;;9.90;7.75;;;;;;;30.33;41.44;96972.16;10280061;28;20054;-49
2023/08/02 16:07:28;;;;;;;8.73;6.85;;;;;;;29.98;41.68;96982.63;10278016;28;20100;-48
2023/08/02 16:12:27;;;;;;;9.38;7.22;;;;;;;29.85;41.15;96975.72;10278809;28;20554;-48
2023/08/02 16:17:26;;;;;;;8.95;6.70;;;;;;;29.73;42.34;96973.31;10277805;28;20559;-48
2023/08/02 16:22:25;;;;;;;8.50;7.60;;;;;;;29.55;42.67;96976.66;10280615;28;20463;-48
2023/08/02 16:27:24;;;;;;;9.27;8.00;;;;;;;29.61;42.94;96964.56;10277974;28;20034;-50
2023/08/02 16:32:23;;;;;;;11.02;8.07;;;;;;;29.49;42.50;96956.69;10277763;28;20042;-51
2023/08/02 16:37:22;;;;;;;12.45;7.68;;;;;;;29.31;43.05;96974.38;10279246;28;20435;-49
2023/08/02 16:42:21;;;;;;;10.65;7.13;;;;;;;28.89;44.05;96982.53;10277435;28;20129;-49
2023/08/02 16:47:19;;;;;;;15.07;7.60;;;;;;;28.73;44.26;96984.84;10279068;28;20547;-51
2023/08/02 16:52:18;;;;;;;10.82;7.72;;;;;;;28.45;44.22;96961.38;10279150;28;20117;-50
2023/08/02 16:57:17;;;;;;;10.02;7.47;;;;;;;28.44;45.10;96988.19;10277198;28;20061;-51
2023/08/02 17:02:16;;;;;;;10.77;7.97;;;;;;;28.49;45.45;96993.13;10277287;28;20025;-52
2023/08/02 17:07:15;;;;;;;9.90;6.97;;;;;;;28.41;45.38;96996.47;10279360;28;20026;-51
2023/08/02 17:12:14;;;;;;;8.43;7.47;;;;;;;28.32;45.22;96999.91;10286323;28;20416;-51
2023/08/02 17:17:13;;;;;;;9.27;7.32;;;;;;;28.12;45.75;97007.78;10287222;28;20120;-48
2023/08/02 17:22:12;;;;;;;9.05;7.57;;;;;;;28.03;45.50;97000.50;10288359;28;20034;-51
2023/08/02 17:27:11;;;;;;;10.65;7.57;;;;;;;27.97;46.05;96999.22;10284213;28;20117;-52
2023/08/02 17:32:10;;;;;;;9.18;7.38;;;;;;;27.90;46.08;97002.53;10284107;28;20045;-52
2023/08/02 17:37:09;;;;;;;10.30;7.53;;;;;;;27.86;45.64;97012.59;10285837;28;20032;-52
2023/08/02 17:42:09;;;;;;;11.48;7.53;;;;;;;27.81;46.22;97015.66;10284343;28;20036;-49
2023/08/02 17:47:07;;;;;;;10.43;8.20;;;;;;;27.77;46.76;97022.19;10283073;28;20510;-52
2023/08/02 17:52:07;;;;;;;9.82;7.57;;;;;;;27.06;46.99;96936.50;10285563;28;20537;-50
2023/08/02 17:57:06;;;;;;;10.07;7.50;;;;;;;27.37;47.42;97017.44;10283419;28;20113;-52
2023/08/02 18:02:07;;;;;;;9.63;7.30;;;;;;;27.34;47.72;97025.69;10281673;28;20530;-49
2023/08/02 18:07:06;;;;;;;11.55;8.80;;;;;;;27.23;48.38;97025.69;10284789;28;20157;-51
2023/08/02 18:12:05;;;;;;;28.75;17.23;;;;;;;27.25;48.90;97033.56;10281400;28;20072;-51
2023/08/02 18:17:04;;;;;;;28.83;18.50;;;;;;;27.23;50.18;97047.00;10282187;28;20140;-51
2023/08/02 18:22:03;;;;;;;21.42;15.02;;;;;;;27.08;50.84;97018.94;10283033;28;20041;-51
2023/08/02 18:27:02;;;;;;;13.32;10.15;;;;;;;27.11;51.13;97038.19;10281799;28;20129;-51
2023/08/02 18:32:01;;;;;;;16.27;10.35;;;;;;;27.08;51.23;97048.25;10282447;28;20496;-53
2023/08/02 18:37:01;;;;;;;13.70;10.70;;;;;;;26.96;51.34;97042.06;10282305;28;20064;-52
2023/08/02 18:41:59;;;;;;;12.43;9.73;;;;;;;26.84;51.62;97051.00;10283422;28;20074;-50
2023/08/02 18:46:59;;;;;;;13.10;9.82;;;;;;;26.75;51.96;97053.41;10279882;28;20135;-52
2023/08/02 18:51:59;;;;;;;12.15;9.90;;;;;;;26.57;52.68;97039.69;10283467;28;20120;-52
2023/08/02 18:56:58;;;;;;;11.40;9.35;;;;;;;26.43;53.01;97047.91;10280662;28;20209;-53
2023/08/02 19:01:57;;;;;;;12.30;9.65;;;;;;;26.39;53.01;97057.06;10279731;28;20034;-51
2023/08/02 19:06:56;;;;;;;12.52;10.40;;;;;;;26.28;53.46;97057.06;10282386;28;20456;-49
2023/08/02 19:11:55;;;;;;;11.02;9.55;;;;;;;26.04;54.29;97063.25;10279966;28;20037;-50
2023/08/02 19:16:56;;;;;;;12.63;10.25;;;;;;;25.97;54.23;97069.94;10280860;28;20112;-51
2023/08/02 19:21:57;;;;;;;12.00;9.88;;;;;;;25.83;55.01;97075.44;10280676;28;20076;-52
2023/08/02 19:26:59;;;;;;;10.27;8.95;;;;;;;25.66;55.28;97076.69;10279649;28;20073;-53
2023/08/02 19:31:59;;;;;;;12.02;9.68;;;;;;;25.39;55.53;97045.81;10279714;28;20070;-50
2023/08/02 19:36:59;;;;;;;12.23;9.35;;;;;;;25.32;56.55;97066.66;10280742;28;20057;-50
2023/08/02 19:42:00;;;;;;;12.63;10.02;;;;;;;25.19;58.35;97079.13;10278333;28;20069;-51
2023/08/02 19:46:58;;;;;;;13.85;10.35;;;;;;;24.97;59.66;97081.59;10280337;28;20535;-51
2023/08/02 19:51:57;;;;;;;13.75;10.45;;;;;;;24.99;59.24;97090.28;10279573;28;20032;-51
2023/08/02 19:56:59;;;;;;;11.73;9.93;;;;;;;24.89;59.80;97084.78;10278181;28;20554;-50
2023/08/02 20:02:04;;;;;;;12.85;10.10;;;;;;;24.79;60.32;97092.50;10279345;28;20129;-51
2023/08/02 20:07:04;;;;;;;13.80;10.52;;;;;;;24.65;61.12;97100.56;10279636;28;21025;-52
2023/08/02 20:12:04;;;;;;;14.13;11.20;;;;;;;24.51;61.82;97090.88;10278742;28;20116;-51
2023/08/02 20:17:03;;;;;;;13.23;11.10;;;;;;;24.39;62.51;97095.22;10277936;28;20191;-51
2023/08/02 20:22:03;;;;;;;13.13;11.10;;;;;;;24.26;63.57;97102.28;10277747;28;20113;-49
2023/08/02 20:27:04;;;;;;;15.88;11.52;;;;;;;24.15;63.62;97102.16;10280408;28;20117;-51
2023/08/02 20:32:03;;;;;;;15.63;11.98;;;;;;;24.05;66.12;97096.56;10278191;28;20175;-51
2023/08/02 20:37:04;;;;;;;13.13;11.48;;;;;;;23.88;66.20;97108.28;10279155;28;20498;-52
2023/08/02 20:42:05;;;;;;;16.95;12.30;;;;;;;23.80;66.90;97113.25;10280224;28;20132;-50
2023/08/02 20:47:10;;;;;;;15.77;12.40;;;;;;;23.66;68.08;97114.13;10291491;28;20128;-51
2023/08/02 20:52:09;;;;;;;15.50;11.75;;;;;;;23.60;68.40;97114.53;10284502;28;20113;-49
2023/08/02 20:57:10;;;;;;;13.65;12.10;;;;;;;23.54;68.54;97121.06;10287438;28;20026;-49
2023/08/02 21:02:18;;;;;;;18.25;12.48;;;;;;;23.46;68.98;97117.16;10286646;28;20061;-51
2023/08/02 21:07:17;;;;;;;15.83;11.50;;;;;;;23.36;68.90;97112.44;10284746;28;20121;-49
2023/08/02 21:12:16;;;;;;;14.80;12.60;;;;;;;23.31;68.71;97103.97;10286699;28;20105;-50
2023/08/02 21:17:18;;;;;;;14.93;12.77;;;;;;;23.21;68.72;97111.63;10284990;28;20109;-50
2023/08/02 21:22:18;;;;;;;15.80;12.45;;;;;;;23.20;70.08;97115.19;10284844;28;20161;-51
2023/08/02 21:27:17;;;;;;;15.32;12.23;;;;;;;23.14;71.10;97118.25;10286225;28;20563;-52
2023/08/02 21:32:16;;;;;;;16.50;13.50;;;;;;;23.04;71.86;97117.09;10283117;28;20049;-51
2023/08/02 21:37:15;;;;;;;18.38;12.30;;;;;;;22.92;72.19;97125.78;10286406;28;20497;-51
2023/08/02 21:42:21;;;;;;;16.55;12.57;;;;;;;22.84;72.87;97130.72;10283855;28;20423;-51
2023/08/02 21:47:20;;;;;;;15.63;11.70;;;;;;;22.71;73.32;97125.25;10283558;28;20129;-51
2023/08/02 21:52:19;;;;;;;17.20;11.93;;;;;;;22.69;72.61;97127.16;10282705;28;20030;-51
2023/08/02 21:57:18;;;;;;;16.77;13.15;;;;;;;22.67;72.52;97127.25;10284354;28;20022;-51
2023/08/02 22:02:17;;;;;;;15.18;12.32;;;;;;;22.66;73.44;97135.28;10283434;28;20573;-50
2023/08/02 22:07:16;;;;;;;15.93;12.68;;;;;;;22.70;73.91;97121.78;10279378;28;20025;-49
2023/08/02 22:12:16;;;;;;;16.95;12.63;;;;;;;22.72;73.98;97121.69;10281586;28;20179;-51
2023/08/02 22:17:24;;;;;;;16.45;12.50;;;;;;;22.70;74.50;97124.41;10280624;28;20133;-52
2023/08/02 22:22:23;;;;;;;16.10;13.13;;;;;;;22.72;74.23;97122.53;10280115;28;20486;-48
2023/08/02 22:27:24;;;;;;;15.20;12.82;;;;;;;22.74;74.78;97125.09;10282421;28;20570;-52
2023/08/02 22:32:23;;;;;;;14.13;12.65;;;;;;;22.75;74.36;97127.66;10281785;28;20077;-48
2023/08/02 22:37:22;;;;;;;13.50;11.93;;;;;;;22.76;74.38;97128.50;10283174;28;20022;-50
2023/08/02 22:42:21;;;;;;;16.08;12.88;;;;;;;22.50;75.19;97127.41;10282274;28;20048;-51
2023/08/02 22:47:20;;;;;;;15.38;12.25;;;;;;;22.34;75.73;97130.97;10281611;28;20042;-50
2023/08/02 22:52:19;;;;;;;12.77;11.20;;;;;;;22.38;75.27;97113.94;10283370;28;20468;-50
2023/08/02 22:57:21;;;;;;;15.30;12.70;;;;;;;22.12;75.25;97075.00;10281667;28;20598;-52